Time;durP1;ratioP1;P1;durP2;ratioP2;P2;SDS_P1;SDS_P2;PMS_P1;PMS_P2;Temp;Humidity;BMP_temperature;BMP_pressure;BME280_temperature;BME280_humidity;BME280_pressure;Samples;Min_cycle;Max_cycle;Signal;HPM_P1;HPM_P2
2022/07/13 00:01:51;;;;;;;37.17;23.02;;;20.10;99.90;;;;;;4773360;30;20062;-76
2022/07/13 00:04:17;;;;;;;28.33;20.95;;;20.20;99.90;;;;;;4773681;30;20049;-75
2022/07/13 00:06:42;;;;;;;31.90;23.33;;;20.10;99.90;;;;;;4758365;30;20417;-77
2022/07/13 00:09:08;;;;;;;28.20;23.02;;;20.00;99.90;;;;;;4773514;30;20131;-75
2022/07/13 00:11:34;;;;;;;28.48;22.48;;;20.00;99.90;;;;;;4773742;30;20055;-77
2022/07/13 00:13:59;;;;;;;31.88;24.35;;;20.00;99.90;;;;;;4774014;30;20386;-75
2022/07/13 00:16:25;;;;;;;29.48;23.77;;;19.90;99.90;;;;;;4773242;30;20039;-77
2022/07/13 00:18:51;;;;;;;31.77;22.80;;;20.00;99.90;;;;;;4758237;30;20168;-76
2022/07/13 00:21:19;;;;;;;33.83;24.45;;;20.00;99.90;;;;;;4773339;30;20050;-76
2022/07/13 00:23:47;;;;;;;36.85;24.58;;;20.00;99.90;;;;;;4758154;30;20130;-76
2022/07/13 00:26:13;;;;;;;28.50;22.33;;;20.10;99.90;;;;;;4772618;30;20031;-78
2022/07/13 00:28:38;;;;;;;36.63;24.00;;;20.00;99.90;;;;;;4758526;30;20043;-76
2022/07/13 00:31:04;;;;;;;27.55;22.90;;;20.00;99.90;;;;;;4758285;30;20043;-75
2022/07/13 00:33:30;;;;;;;30.20;21.67;;;20.00;99.90;;;;;;4772790;30;20055;-75
2022/07/13 00:35:55;;;;;;;31.90;22.70;;;20.00;99.90;;;;;;4757627;30;20039;-76
2022/07/13 00:38:21;;;;;;;27.58;21.88;;;20.00;99.90;;;;;;4772587;30;20133;-76
2022/07/13 00:40:47;;;;;;;26.05;21.50;;;20.00;99.90;;;;;;4778557;30;20055;-76
2022/07/13 00:43:12;;;;;;;27.90;21.48;;;20.10;99.90;;;;;;4787682;30;20055;-76
2022/07/13 00:45:38;;;;;;;31.45;20.42;;;20.10;99.90;;;;;;4781784;29;20043;-76
2022/07/13 00:48:05;;;;;;;24.45;20.40;;;20.10;99.90;;;;;;4788883;30;20040;-76
2022/07/13 00:50:31;;;;;;;24.65;20.60;;;20.10;99.90;;;;;;4787836;30;20392;-76
2022/07/13 00:52:57;;;;;;;29.88;21.05;;;20.10;99.90;;;;;;4772986;30;20138;-76
2022/07/13 00:55:25;;;;;;;25.75;19.48;;;20.10;99.90;;;;;;4772638;30;20035;-76
2022/07/13 00:57:51;;;;;;;26.75;20.45;;;20.00;99.90;;;;;;4758119;30;20059;-76
2022/07/13 01:00:17;;;;;;;31.55;21.63;;;20.00;99.90;;;;;;4772808;30;20131;-76
2022/07/13 01:02:45;;;;;;;26.75;21.60;;;20.00;99.90;;;;;;4757267;30;20116;-76
2022/07/13 01:05:13;;;;;;;25.98;19.80;;;20.00;99.90;;;;;;4772545;30;20488;-77
2022/07/13 01:07:39;;;;;;;25.92;20.35;;;20.00;99.90;;;;;;4772661;30;20051;-77
2022/07/13 01:10:08;;;;;;;29.95;21.10;;;20.00;99.90;;;;;;4757312;30;20130;-76
2022/07/13 01:12:36;;;;;;;24.85;19.88;;;20.10;99.90;;;;;;4772481;30;20104;-75
2022/07/13 01:15:03;;;;;;;25.55;19.90;;;20.10;99.90;;;;;;4772389;30;20500;-76
2022/07/13 01:17:30;;;;;;;28.08;21.00;;;20.10;99.90;;;;;;4772631;30;20108;-76
2022/07/13 01:19:57;;;;;;;24.00;19.13;;;20.10;99.90;;;;;;4772596;30;20126;-75
2022/07/13 01:22:26;;;;;;;22.02;18.15;;;20.20;99.90;;;;;;4772513;30;20083;-76
2022/07/13 01:24:55;;;;;;;24.63;17.90;;;20.10;99.90;;;;;;4781752;30;20134;-76
2022/07/13 01:27:21;;;;;;;24.77;19.13;;;20.10;99.90;;;;;;4772587;30;20142;-76
2022/07/13 01:29:47;;;;;;;24.70;18.30;;;20.00;99.90;;;;;;4757159;30;20039;-76
2022/07/13 01:32:12;;;;;;;;;;;20.10;99.90;;;;;;4772328;30;20397;-76
2022/07/13 01:34:38;;;;;;;24.70;17.45;;;20.00;99.90;;;;;;4757323;30;19918;-76
2022/07/13 01:37:04;;;;;;;22.85;16.52;;;20.00;99.90;;;;;;4757823;30;20047;-76
2022/07/13 01:39:29;;;;;;;31.58;17.60;;;20.00;99.90;;;;;;4771945;30;20112;-76
2022/07/13 01:41:55;;;;;;;20.70;15.93;;;20.00;99.90;;;;;;4739516;30;20151;-76
2022/07/13 01:44:21;;;;;;;20.73;15.43;;;19.90;99.90;;;;;;4753496;30;20051;-76
2022/07/13 01:46:47;;;;;;;23.05;17.15;;;20.00;99.90;;;;;;4739592;30;20043;-76
2022/07/13 01:49:12;;;;;;;22.90;16.05;;;19.90;99.90;;;;;;4739505;30;20389;-76
2022/07/13 01:51:39;;;;;;;20.23;14.70;;;19.90;99.90;;;;;;4753757;30;20044;-76
2022/07/13 01:54:05;;;;;;;18.42;14.30;;;19.90;99.90;;;;;;4754414;30;20051;-77
2022/07/13 01:56:34;;;;;;;19.63;14.07;;;19.90;99.90;;;;;;4739906;30;20070;-77
2022/07/13 01:59:00;;;;;;;22.00;14.93;;;19.90;99.90;;;;;;4754378;30;20046;-77
2022/07/13 02:01:26;;;;;;;20.85;15.45;;;19.90;99.90;;;;;;4753751;30;20043;-76
2022/07/13 02:03:52;;;;;;;17.17;13.80;;;20.00;99.90;;;;;;4769186;30;20052;-76
2022/07/13 02:06:18;;;;;;;18.38;14.35;;;20.00;99.90;;;;;;4754315;30;20048;-76
2022/07/13 02:08:44;;;;;;;20.80;13.68;;;19.90;99.90;;;;;;4739677;30;20492;-77
2022/07/13 02:11:17;;;;;;;18.05;13.77;;;19.90;99.90;;;;;;4754160;30;20076;-76
2022/07/13 02:13:45;;;;;;;17.17;13.18;;;19.90;99.90;;;;;;4754584;30;20040;-76
2022/07/13 02:16:14;;;;;;;22.15;13.65;;;19.90;99.90;;;;;;4757670;30;20104;-77
2022/07/13 02:18:40;;;;;;;17.80;12.82;;;19.90;99.90;;;;;;4757202;30;20055;-76
2022/07/13 02:21:06;;;;;;;14.68;11.90;;;19.90;99.90;;;;;;4757603;30;20036;-75
2022/07/13 02:23:32;;;;;;;18.27;12.98;;;19.90;99.90;;;;;;4757712;30;20543;-76
2022/07/13 02:25:58;;;;;;;16.98;11.43;;;19.90;99.90;;;;;;4757608;30;20055;-76
2022/07/13 02:28:23;;;;;;;19.27;11.73;;;19.90;99.90;;;;;;4757261;30;20104;-75
2022/07/13 02:30:49;;;;;;;17.13;12.00;;;19.90;99.90;;;;;;4757374;30;20381;-75
2022/07/13 02:33:15;;;;;;;15.70;11.73;;;19.90;99.90;;;;;;4742447;30;20134;-76
2022/07/13 02:35:41;;;;;;;19.20;11.50;;;19.90;99.90;;;;;;4773259;30;20087;-76
2022/07/13 02:38:06;;;;;;;16.00;11.70;;;19.90;99.90;;;;;;4757137;30;20089;-76
2022/07/13 02:40:32;;;;;;;17.52;11.80;;;19.90;99.90;;;;;;4763348;30;20095;-75
2022/07/13 02:42:58;;;;;;;19.23;12.55;;;19.90;99.90;;;;;;4775047;29;20051;-76
2022/07/13 02:45:23;;;;;;;16.55;10.82;;;19.80;99.90;;;;;;4789945;30;20047;-77
2022/07/13 02:47:49;;;;;;;17.15;11.82;;;19.80;99.90;;;;;;4790893;30;20055;-76
2022/07/13 02:50:15;;;;;;;15.55;11.32;;;19.80;99.90;;;;;;4786703;30;20043;-76
2022/07/13 02:52:41;;;;;;;16.67;11.13;;;19.80;99.90;;;;;;4774959;30;20066;-75
2022/07/13 02:55:07;;;;;;;19.00;11.60;;;19.80;99.90;;;;;;4774904;30;20070;-76
2022/07/13 02:57:33;;;;;;;15.45;11.70;;;19.80;99.90;;;;;;4760048;30;20090;-76
2022/07/13 02:59:59;;;;;;;14.40;11.00;;;19.80;99.90;;;;;;4789333;30;20437;-76
2022/07/13 03:02:24;;;;;;;15.63;12.20;;;19.80;99.90;;;;;;4774875;30;20047;-76
2022/07/13 03:04:55;;;;;;;16.67;12.40;;;19.80;99.90;;;;;;4774703;30;20177;-76
2022/07/13 03:07:23;;;;;;;15.50;11.20;;;19.80;99.90;;;;;;4774843;30;20147;-76
2022/07/13 03:13:01;;;;;;;17.92;12.00;;;19.70;99.90;;;;;;4750031;30;20169;-75
2022/07/13 03:15:27;;;;;;;19.10;11.82;;;19.70;99.90;;;;;;4759606;30;20043;-75
2022/07/13 03:17:53;;;;;;;12.57;10.70;;;19.70;99.90;;;;;;4789671;29;20128;-75
2022/07/13 03:20:19;;;;;;;16.33;11.25;;;19.70;99.90;;;;;;4774074;30;20039;-75
2022/07/13 03:22:45;;;;;;;16.38;12.15;;;19.70;99.90;;;;;;4774577;30;20100;-76
2022/07/13 03:25:11;;;;;;;16.95;12.00;;;19.70;99.90;;;;;;4773982;30;20130;-75
2022/07/13 03:27:37;;;;;;;18.25;12.23;;;19.70;99.90;;;;;;4774190;30;20442;-75
2022/07/13 03:30:04;;;;;;;16.00;11.50;;;19.70;99.90;;;;;;4759159;30;20381;-76
2022/07/13 03:32:29;;;;;;;15.57;11.32;;;19.70;99.90;;;;;;4789021;30;20466;-75
2022/07/13 03:34:55;;;;;;;14.68;10.45;;;19.70;99.90;;;;;;4759759;30;20051;-75
2022/07/13 03:37:21;;;;;;;13.38;10.13;;;19.70;99.90;;;;;;4773988;30;20066;-75
2022/07/13 03:39:47;;;;;;;15.13;10.85;;;19.80;99.90;;;;;;4757368;30;20051;-75
2022/07/13 03:42:12;;;;;;;15.85;10.43;;;19.80;99.90;;;;;;4741809;30;20051;-76
2022/07/13 03:44:38;;;;;;;14.88;11.20;;;19.80;99.90;;;;;;4756098;30;20134;-76
2022/07/13 03:47:04;;;;;;;13.48;10.25;;;19.80;99.90;;;;;;4741269;30;20147;-75
2022/07/13 03:49:30;;;;;;;12.25;9.98;;;19.80;99.90;;;;;;4755961;30;20395;-75
2022/07/13 03:51:55;;;;;;;12.55;10.23;;;19.80;99.90;;;;;;4755778;30;20122;-76
2022/07/13 03:54:21;;;;;;;15.70;10.77;;;19.80;99.90;;;;;;4741479;30;20043;-76
2022/07/13 03:56:47;;;;;;;;;;;19.80;99.90;;;;;;4756305;30;20117;-75
2022/07/13 03:59:13;;;;;;;14.35;10.38;;;19.80;99.90;;;;;;4756013;30;19926;-76
2022/07/13 04:01:42;;;;;;;14.00;10.15;;;19.80;99.90;;;;;;4755329;30;20048;-75
2022/07/13 04:04:08;;;;;;;13.88;10.13;;;19.80;99.90;;;;;;4756263;30;20087;-76
2022/07/13 04:06:34;;;;;;;13.75;9.25;;;19.80;99.90;;;;;;4755653;30;20086;-76
2022/07/13 04:08:59;;;;;;;10.88;8.77;;;19.80;99.90;;;;;;4755928;30;20419;-75
2022/07/13 04:11:28;;;;;;;13.73;9.15;;;19.80;99.90;;;;;;4740334;30;20048;-76
2022/07/13 04:13:54;;;;;;;10.60;8.52;;;19.80;99.90;;;;;;4740506;30;20055;-75
2022/07/13 04:16:19;;;;;;;10.10;7.60;;;19.80;99.90;;;;;;4740382;30;20039;-75
2022/07/13 04:18:45;;;;;;;11.15;8.13;;;19.80;99.90;;;;;;4771505;30;20190;-76
2022/07/13 04:21:13;;;;;;;15.43;9.00;;;19.80;99.90;;;;;;4755554;30;20394;-75
2022/07/13 04:23:40;;;;;;;10.60;7.80;;;19.80;99.90;;;;;;4740767;30;20055;-75
2022/07/13 04:26:05;;;;;;;;;;;19.80;99.90;;;;;;4741271;30;20054;-75
2022/07/13 04:28:31;;;;;;;9.50;6.90;;;19.80;99.90;;;;;;4740813;30;19921;-69
2022/07/13 04:30:57;;;;;;;10.95;6.38;;;19.80;99.90;;;;;;4754741;30;20043;-70
2022/07/13 04:33:23;;;;;;;12.80;6.13;;;19.80;99.90;;;;;;4770318;30;20051;-67
2022/07/13 04:35:48;;;;;;;11.85;6.10;;;19.80;99.90;;;;;;4740564;30;20053;-71
2022/07/13 04:38:14;;;;;;;12.38;5.82;;;19.90;99.90;;;;;;4755096;30;20127;-69
2022/07/13 04:40:40;;;;;;;14.45;5.57;;;19.80;99.90;;;;;;4756604;30;20061;-69
2022/07/13 04:43:06;;;;;;;14.30;6.03;;;19.90;99.90;;;;;;4771151;30;20094;-68
2022/07/13 04:45:32;;;;;;;9.02;5.72;;;19.90;99.90;;;;;;4777257;30;20046;-68
2022/07/13 04:47:58;;;;;;;7.63;5.18;;;19.90;99.90;;;;;;4788863;30;20055;-69
2022/07/13 04:50:24;;;;;;;10.85;4.70;;;19.90;99.90;;;;;;4767975;30;20081;-68
2022/07/13 04:52:50;;;;;;;;;;;19.90;99.90;;;;;;4754708;30;20489;-69
2022/07/13 04:55:16;;;;;;;11.80;5.57;;;19.90;99.90;;;;;;4754675;30;19928;-68
2022/07/13 04:57:42;;;;;;;8.73;6.15;;;19.90;99.90;;;;;;4754696;30;20131;-68
2022/07/13 05:00:09;;;;;;;9.80;6.15;;;19.90;99.90;;;;;;4755830;30;20135;-67
2022/07/13 05:02:36;;;;;;;11.10;6.00;;;19.90;99.90;;;;;;4770040;30;20056;-69
2022/07/13 05:05:03;;;;;;;9.65;6.38;;;20.00;99.90;;;;;;4773386;30;20043;-69
2022/07/13 05:07:29;;;;;;;10.68;6.57;;;20.00;99.90;;;;;;4772809;30;20054;-68
2022/07/13 05:09:55;;;;;;;14.90;7.57;;;20.00;99.90;;;;;;4740690;30;20048;-68
2022/07/13 05:12:21;;;;;;;9.70;6.75;;;20.00;99.90;;;;;;4770555;30;20067;-69
2022/07/13 05:14:47;;;;;;;14.20;7.65;;;20.00;99.90;;;;;;4755867;30;20052;-68
2022/07/13 05:17:13;;;;;;;13.40;7.45;;;20.10;99.90;;;;;;4740002;30;20044;-69
2022/07/13 05:19:38;;;;;;;10.85;6.97;;;20.10;99.90;;;;;;4754833;30;20138;-68
2022/07/13 05:22:04;;;;;;;12.15;8.27;;;20.10;99.90;;;;;;4754757;30;20134;-68
2022/07/13 05:24:30;;;;;;;18.08;6.72;;;20.10;99.90;;;;;;4744402;30;20043;-68
2022/07/13 05:26:55;;;;;;;13.73;7.95;;;20.10;99.90;;;;;;4757835;30;20059;-68
2022/07/13 05:29:21;;;;;;;13.90;6.40;;;20.10;99.90;;;;;;4785947;30;20134;-68
2022/07/13 05:32:10;;;;;;;12.18;6.03;;;20.10;99.90;;;;;;4754727;30;20052;-75
2022/07/13 07:03:50;;;;;;;13.93;5.90;;;25.10;98.30;;;;;;5390537;24;20142;-81
2022/07/13 07:06:51;;;;;;;12.20;4.75;;;25.30;98.20;;;;;;4759567;30;20047;-79
2022/07/13 07:09:29;;;;;;;11.50;4.25;;;25.40;97.50;;;;;;4754420;30;20147;-80
2022/07/13 07:12:38;;;;;;;10.57;4.70;;;25.50;97.60;;;;;;4736307;30;20051;-77
2022/07/13 07:29:46;;;;;;;12.23;4.50;;;25.80;95.50;;;;;;4731995;28;20063;-78
2022/07/13 07:32:12;;;;;;;10.25;3.72;;;25.80;95.10;;;;;;4756655;30;20482;-73
2022/07/13 07:34:38;;;;;;;10.50;4.00;;;25.90;95.10;;;;;;4724176;30;20064;-80
2022/07/13 07:37:03;;;;;;;8.52;4.05;;;26.10;94.80;;;;;;4746772;30;20039;-79
2022/07/13 07:39:30;;;;;;;9.52;4.22;;;26.00;94.30;;;;;;4756426;30;20040;-77
2022/07/13 07:42:04;;;;;;;8.13;3.88;;;26.20;93.80;;;;;;4741417;30;20048;-76
2022/07/13 07:48:45;;;;;;;6.18;3.78;;;26.40;92.50;;;;;;4663393;30;20081;-82
2022/07/13 08:00:07;;;;;;;6.53;3.38;;;26.50;92.40;;;;;;5341236;24;20102;-79
2022/07/13 08:14:51;;;;;;;;;;;;;;;;;;;;;
2022/07/13 08:25:54;;;;;;;;;;;;;;;;;;;;;
2022/07/13 08:33:17;;;;;;;;;;;;;;;;;;;;;
2022/07/13 08:55:22;;;;;;;8.40;3.58;;;27.60;87.50;;;;;;4513082;31;20106;-80
2022/07/13 08:58:18;;;;;;;8.75;3.20;;;27.40;89.80;;;;;;4502686;31;20058;-80
2022/07/13 09:00:44;;;;;;;7.90;3.47;;;27.60;89.50;;;;;;4514512;31;20057;-74
2022/07/13 09:03:13;;;;;;;7.13;3.13;;;27.40;88.30;;;;;;4594850;31;20064;-79
2022/07/13 09:05:50;;;;;;;7.13;2.75;;;27.20;87.90;;;;;;4615078;30;20136;-79
2022/07/13 09:08:19;;;;;;;6.75;2.80;;;27.10;88.20;;;;;;4686060;30;20045;-74
2022/07/13 09:14:35;;;;;;;9.30;2.78;;;27.00;87.30;;;;;;4654072;30;20439;-77
2022/07/13 09:18:15;;;;;;;6.63;3.20;;;27.10;86.20;;;;;;4649039;30;20096;-75
2022/07/13 09:21:19;;;;;;;5.57;2.92;;;26.90;87.10;;;;;;4624860;30;20052;-76
2022/07/13 09:24:07;;;;;;;8.88;3.17;;;27.20;89.10;;;;;;4617067;31;20066;-84
2022/07/13 09:30:28;;;;;;;5.07;2.30;;;27.60;87.00;;;;;;4605093;31;20054;-78
2022/07/13 09:52:10;;;;;;;6.22;1.63;;;27.50;81.30;;;;;;4615403;30;20063;-81
2022/07/13 09:56:10;;;;;;;3.35;1.63;;;27.40;82.80;;;;;;4595208;30;20100;-80
2022/07/13 09:59:06;;;;;;;4.70;1.80;;;27.60;83.00;;;;;;4698585;30;20045;-80
2022/07/13 10:02:36;;;;;;;4.70;2.10;;;27.60;83.50;;;;;;4705495;30;20053;-80
2022/07/13 10:05:18;;;;;;;4.85;2.00;;;27.80;83.90;;;;;;4694302;30;20190;-85
2022/07/13 10:07:47;;;;;;;2.80;1.50;;;27.70;84.40;;;;;;4685884;30;20042;-75
2022/07/13 10:10:16;;;;;;;2.83;1.60;;;27.80;83.70;;;;;;4734035;30;20048;-79
2022/07/13 10:12:43;;;;;;;2.70;1.50;;;27.80;83.00;;;;;;4736217;30;20141;-77
2022/07/13 10:15:11;;;;;;;5.13;1.40;;;27.90;83.40;;;;;;4736749;30;20382;-75
2022/07/13 10:17:38;;;;;;;5.28;1.55;;;27.70;82.50;;;;;;4736315;30;20059;-75
2022/07/13 10:20:16;;;;;;;5.28;1.50;;;27.70;81.50;;;;;;4736881;30;20053;-74
2022/07/13 10:22:48;;;;;;;5.53;1.30;;;27.70;81.20;;;;;;4736733;30;20534;-75
2022/07/13 10:25:16;;;;;;;4.35;1.30;;;27.70;81.90;;;;;;4736832;30;20119;-76
2022/07/13 10:27:42;;;;;;;5.05;1.30;;;27.50;79.80;;;;;;4735565;30;20063;-76
2022/07/13 10:30:26;;;;;;;3.92;1.23;;;27.40;81.30;;;;;;4736188;30;20044;-75
2022/07/13 10:32:52;;;;;;;10.02;1.70;;;27.40;81.90;;;;;;4708404;30;20059;-76
2022/07/13 10:35:20;;;;;;;5.05;1.50;;;27.30;83.20;;;;;;4733029;30;20098;-74
2022/07/13 10:38:06;;;;;;;6.53;1.70;;;27.20;83.60;;;;;;4741599;30;20053;-75
2022/07/13 10:40:34;;;;;;;4.18;1.80;;;27.20;87.10;;;;;;4738451;30;20059;-76
2022/07/13 10:43:05;;;;;;;8.15;1.45;;;27.20;86.70;;;;;;4738133;30;20043;-77
2022/07/13 10:45:48;;;;;;;6.53;1.73;;;27.10;85.00;;;;;;4742372;30;20052;-76
2022/07/13 10:48:18;;;;;;;3.10;1.60;;;26.70;85.70;;;;;;4757832;30;20052;-75
2022/07/13 10:50:46;;;;;;;6.43;1.80;;;26.70;84.70;;;;;;4743178;30;20094;-75
2022/07/13 10:53:12;;;;;;;2.45;1.45;;;26.60;84.80;;;;;;4738840;30;20056;-74
2022/07/13 10:55:47;;;;;;;5.63;1.40;;;26.10;86.60;;;;;;4739268;30;20120;-77
2022/07/13 10:58:31;;;;;;;4.10;1.75;;;26.00;88.40;;;;;;4735990;30;20052;-78
2022/07/13 11:01:03;;;;;;;3.25;1.83;;;26.10;90.00;;;;;;4741836;30;20079;-73
2022/07/13 11:03:43;;;;;;;6.07;2.08;;;26.40;90.20;;;;;;4735715;30;20239;-76
2022/07/13 11:06:16;;;;;;;5.00;1.80;;;26.60;89.80;;;;;;4738389;30;20126;-74
2022/07/13 11:08:43;;;;;;;8.05;2.20;;;26.60;89.40;;;;;;4741161;30;20060;-77
2022/07/13 11:11:28;;;;;;;9.02;2.30;;;26.20;89.10;;;;;;4757759;30;20120;-78
2022/07/13 11:13:53;;;;;;;6.20;2.65;;;26.10;90.60;;;;;;4760035;30;20055;-78
2022/07/13 11:16:45;;;;;;;6.10;2.75;;;25.70;91.10;;;;;;4739840;30;20044;-77
2022/07/13 11:19:11;;;;;;;8.30;2.50;;;25.60;91.90;;;;;;4737202;30;20135;-79
2022/07/13 11:22:10;;;;;;;7.65;2.65;;;25.30;91.50;;;;;;4740500;30;20135;-80
2022/07/13 11:27:42;;;;;;;6.55;2.58;;;25.20;93.10;;;;;;4735991;30;20052;-79
2022/07/13 11:30:13;;;;;;;5.38;2.15;;;25.00;92.60;;;;;;4735581;30;20119;-77
2022/07/13 11:32:39;;;;;;;4.93;2.05;;;25.20;92.90;;;;;;4737849;30;20076;-76
2022/07/13 11:35:05;;;;;;;7.30;2.20;;;25.00;93.10;;;;;;4737173;30;20448;-79
2022/07/13 11:37:31;;;;;;;7.40;2.20;;;25.10;93.40;;;;;;4741923;30;20060;-80
2022/07/13 11:39:57;;;;;;;5.95;1.90;;;25.30;93.60;;;;;;4737124;30;20054;-74
2022/07/13 11:42:27;;;;;;;7.88;2.10;;;25.40;93.70;;;;;;4752296;30;20471;-82
2022/07/13 11:44:53;;;;;;;9.20;2.63;;;25.20;93.60;;;;;;4722673;30;20044;-80
2022/07/13 11:47:38;;;;;;;7.95;2.50;;;25.20;94.40;;;;;;4736227;30;20157;-80
2022/07/13 11:50:27;;;;;;;8.90;2.30;;;25.30;94.10;;;;;;4736198;30;20056;-81
2022/07/13 11:53:01;;;;;;;10.77;2.20;;;25.30;94.20;;;;;;4720679;30;20081;-81
2022/07/13 11:55:30;;;;;;;11.88;2.50;;;24.80;94.20;;;;;;4722618;30;20093;-78
2022/07/13 11:57:59;;;;;;;10.50;2.40;;;24.70;94.50;;;;;;4743431;30;20094;-77
2022/07/13 12:00:24;;;;;;;8.00;2.47;;;24.40;94.70;;;;;;4733318;30;20088;-74
2022/07/13 12:02:51;;;;;;;11.25;2.78;;;24.30;95.30;;;;;;4736606;30;20095;-77
2022/07/13 12:05:28;;;;;;;11.20;2.78;;;23.90;96.00;;;;;;4733720;30;20454;-74
2022/07/13 12:08:06;;;;;;;10.20;2.60;;;23.60;96.20;;;;;;4735455;30;20480;-79
2022/07/13 12:10:35;;;;;;;7.97;2.33;;;23.40;95.90;;;;;;4735527;30;20037;-75
2022/07/13 12:13:01;;;;;;;11.77;2.30;;;23.40;95.90;;;;;;4732896;30;20053;-79
2022/07/13 12:15:27;;;;;;;9.27;2.30;;;23.30;95.90;;;;;;4735566;30;20040;-74
2022/07/13 12:20:53;;;;;;;7.57;2.00;;;23.40;96.00;;;;;;4744535;30;19924;-76
2022/07/13 12:23:19;;;;;;;;;;;23.40;96.40;;;;;;4735092;30;20123;-75
2022/07/13 12:25:47;;;;;;;10.38;2.83;;;23.50;95.80;;;;;;4734659;30;19919;-79
2022/07/13 12:28:12;;;;;;;8.68;2.47;;;23.60;96.30;;;;;;4735446;30;20048;-79
2022/07/13 12:30:59;;;;;;;;;;;23.40;96.70;;;;;;4735491;30;20044;-79
2022/07/13 12:33:25;;;;;;;11.75;2.70;;;23.50;96.70;;;;;;4734840;30;19919;-78
2022/07/13 12:36:01;;;;;;;;;;;23.80;96.80;;;;;;4735428;30;20055;-78
2022/07/13 12:38:26;;;;;;;10.15;2.40;;;23.80;95.40;;;;;;4734369;30;19926;-77
2022/07/13 12:40:53;;;;;;;;;;;24.00;95.70;;;;;;4736110;30;20040;-78
2022/07/13 12:43:26;;;;;;;9.43;2.65;;;23.90;95.10;;;;;;4738641;30;20242;-79
2022/07/13 12:45:59;;;;;;;12.18;2.45;;;24.00;94.70;;;;;;4721869;30;20403;-80
2022/07/13 12:48:34;;;;;;;10.70;2.45;;;23.90;94.50;;;;;;4719798;30;20120;-81
2022/07/13 12:51:05;;;;;;;8.95;2.15;;;23.70;95.20;;;;;;4734928;30;20045;-78
2022/07/13 12:53:52;;;;;;;9.55;1.98;;;23.70;95.20;;;;;;4719808;30;20098;-79
2022/07/13 12:56:20;;;;;;;10.80;2.47;;;23.60;93.80;;;;;;4734401;30;20044;-79
2022/07/13 12:58:48;;;;;;;9.25;1.98;;;23.50;93.80;;;;;;4734806;30;20124;-75
2022/07/13 13:01:30;;;;;;;12.52;2.45;;;23.50;94.30;;;;;;4733903;30;20118;-73
2022/07/13 13:04:03;;;;;;;10.25;2.58;;;23.60;94.20;;;;;;4748476;30;20566;-73
2022/07/13 13:06:33;;;;;;;12.63;3.05;;;23.90;94.20;;;;;;4734245;30;20196;-76
2022/07/13 13:09:18;;;;;;;10.88;2.40;;;24.20;93.60;;;;;;4734095;30;20048;-73
2022/07/13 13:11:46;;;;;;;10.05;2.65;;;23.80;92.90;;;;;;4734239;30;20442;-73
2022/07/13 13:14:12;;;;;;;14.38;2.65;;;23.50;93.90;;;;;;4733967;30;20048;-73
2022/07/13 13:16:39;;;;;;;10.68;2.30;;;23.80;93.30;;;;;;4727538;30;20045;-73
2022/07/13 13:19:05;;;;;;;8.07;1.95;;;24.00;93.10;;;;;;4732139;30;20055;-72
2022/07/13 13:21:32;;;;;;;11.68;1.73;;;23.90;93.10;;;;;;4738190;30;20091;-72
2022/07/13 13:24:01;;;;;;;13.05;1.83;;;23.80;92.20;;;;;;4726981;30;20382;-73
2022/07/13 13:26:27;;;;;;;8.60;1.85;;;23.60;92.80;;;;;;4730228;30;20060;-72
2022/07/13 13:31:37;;;;;;;7.25;1.73;;;23.50;92.30;;;;;;4733811;30;20122;-73
2022/07/13 13:34:03;;;;;;;11.35;2.00;;;23.40;91.10;;;;;;4744696;30;20044;-72
2022/07/13 13:36:28;;;;;;;7.47;2.05;;;23.40;91.20;;;;;;4734044;30;20553;-72
2022/07/13 13:38:54;;;;;;;11.18;2.60;;;23.40;91.40;;;;;;4748320;30;20051;-73
2022/07/13 13:41:22;;;;;;;11.27;2.20;;;23.50;90.30;;;;;;4729751;30;20191;-72
2022/07/13 13:43:48;;;;;;;13.25;2.30;;;23.70;90.20;;;;;;4725383;30;20045;-72
2022/07/13 13:46:14;;;;;;;11.68;2.25;;;23.60;89.50;;;;;;4728532;30;20067;-71
2022/07/13 13:48:39;;;;;;;14.45;2.65;;;23.20;89.80;;;;;;4709808;30;20071;-72
2022/07/13 13:51:05;;;;;;;10.75;2.25;;;23.00;90.30;;;;;;4715109;30;20048;-72
2022/07/13 13:53:31;;;;;;;11.65;2.30;;;23.00;90.30;;;;;;4713471;30;20053;-67
2022/07/13 13:55:56;;;;;;;15.95;2.40;;;22.90;89.60;;;;;;4716855;30;20056;-69
2022/07/13 13:58:56;;;;;;;11.15;2.38;;;22.90;90.20;;;;;;4730987;30;20048;-82
2022/07/13 14:01:28;;;;;;;21.95;3.30;;;23.00;91.90;;;;;;4721980;30;20450;-79
2022/07/13 14:04:43;;;;;;;17.00;2.90;;;23.30;91.80;;;;;;4729971;30;20052;-78
2022/07/13 14:18:27;;;;;;;15.95;2.90;;;23.60;90.90;;;;;;4677116;30;20077;-78
2022/07/13 14:20:56;;;;;;;15.73;3.00;;;23.50;91.30;;;;;;4650951;30;20507;-71
2022/07/13 14:23:22;;;;;;;19.75;3.00;;;23.50;91.10;;;;;;4740555;30;20048;-74
2022/07/13 14:25:48;;;;;;;19.13;2.95;;;23.80;91.60;;;;;;4732007;30;20041;-75
2022/07/13 14:28:15;;;;;;;19.50;2.78;;;24.10;91.60;;;;;;4722764;30;20052;-74
2022/07/13 14:30:52;;;;;;;13.80;2.65;;;24.10;91.70;;;;;;4746415;30;20048;-75
2022/07/13 14:33:21;;;;;;;21.98;3.63;;;24.00;91.00;;;;;;4730586;30;20040;-73
2022/07/13 14:36:04;;;;;;;17.92;3.30;;;23.90;90.70;;;;;;4729983;30;20049;-76
2022/07/13 14:50:00;;;;;;;21.10;3.90;;;23.10;92.00;;;;;;4675956;30;20160;-71
2022/07/13 14:53:08;;;;;;;16.80;3.28;;;23.10;92.10;;;;;;4633400;30;20045;-73
2022/07/13 14:55:58;;;;;;;19.38;3.35;;;23.30;91.40;;;;;;4628222;30;20051;-73
2022/07/13 14:58:26;;;;;;;18.70;3.47;;;23.50;91.40;;;;;;4676397;30;20480;-73
2022/07/13 15:00:55;;;;;;;17.90;3.22;;;23.80;91.80;;;;;;4694891;30;20549;-73
2022/07/13 15:07:15;;;;;;;21.42;3.17;;;23.80;90.70;;;;;;4752455;30;20504;-74
2022/07/13 15:09:41;;;;;;;19.25;4.00;;;23.70;91.30;;;;;;4737177;30;20071;-71
2022/07/13 15:12:26;;;;;;;23.02;3.80;;;23.80;91.10;;;;;;4737706;30;20061;-72
2022/07/13 15:31:40;;;;;;;18.42;2.90;;;25.40;85.90;;;;;;4733017;30;20502;-74
2022/07/13 15:42:30;;;;;;;16.60;3.13;;;24.60;87.00;;;;;;4642102;30;20081;-74
2022/07/13 15:45:02;;;;;;;16.30;2.95;;;24.60;87.60;;;;;;4633678;30;20114;-73
2022/07/13 15:47:31;;;;;;;15.85;2.88;;;24.30;86.10;;;;;;4641473;30;20117;-74
2022/07/13 15:50:30;;;;;;;;;;;;;;;;;;;;;
2022/07/13 15:57:23;;;;;;;14.90;2.90;;;24.90;85.40;;;;;;4640560;30;20033;-76
2022/07/13 16:45:44;;;;;;;16.05;2.88;;;21.10;91.40;;;;;;4779117;29;20046;-75
2022/07/13 16:51:48;;;;;;;16.48;2.85;;;20.90;92.20;;;;;;4712598;30;20056;-73
2022/07/13 16:54:31;;;;;;;;;;;20.80;91.70;;;;;;4712465;30;20058;-75
2022/07/13 17:00:36;;;;;;;17.48;3.05;;;20.90;92.30;;;;;;4786573;30;20443;-73
2022/07/13 17:03:12;;;;;;;18.95;3.22;;;21.10;91.90;;;;;;4787043;30;20066;-73
2022/07/13 17:07:01;;;;;;;16.08;2.80;;;21.50;91.10;;;;;;4732628;30;20072;-73
2022/07/13 17:09:10;;;;;;;12.55;2.58;;;21.30;90.80;;;;;;4700720;29;20490;-71
2022/07/13 17:11:36;;;;;;;;;;;21.20;90.70;;;;;;4787830;30;20114;-74
2022/07/13 17:14:02;;;;;;;13.60;2.65;;;20.70;91.60;;;;;;4772236;30;20349;-68
2022/07/13 17:16:29;;;;;;;13.65;2.60;;;20.40;91.40;;;;;;4787084;30;20051;-68
2022/07/13 17:18:58;;;;;;;15.27;2.83;;;20.30;91.60;;;;;;4785829;29;20047;-69
2022/07/13 17:21:28;;;;;;;18.52;2.80;;;20.20;92.20;;;;;;4767461;29;20081;-70
2022/07/13 17:23:55;;;;;;;13.93;2.80;;;20.10;92.20;;;;;;4779581;29;20116;-69
2022/07/13 17:26:22;;;;;;;16.55;3.15;;;19.80;92.70;;;;;;4768951;29;20089;-68
2022/07/13 17:28:48;;;;;;;19.15;3.67;;;19.80;93.00;;;;;;4767362;29;20043;-70
2022/07/13 17:31:14;;;;;;;;;;;19.70;93.40;;;;;;4742410;29;20479;-68
2022/07/13 17:33:40;;;;;;;21.33;3.22;;;19.70;94.20;;;;;;4780037;29;20424;-70
2022/07/13 17:36:06;;;;;;;;;;;19.50;94.40;;;;;;4753364;29;20389;-68
2022/07/13 17:38:33;;;;;;;19.60;3.03;;;19.50;94.80;;;;;;4755120;29;19918;-68
2022/07/13 17:40:58;;;;;;;;;;;19.40;94.60;;;;;;4766896;29;20052;-68
2022/07/13 17:43:24;;;;;;;18.98;3.22;;;19.30;95.00;;;;;;4770023;29;19928;-68
2022/07/13 17:45:51;;;;;;;17.77;2.67;;;19.30;94.60;;;;;;4755547;29;20159;-68
2022/07/13 17:48:17;;;;;;;16.48;2.33;;;19.30;94.10;;;;;;4771533;29;20498;-68
2022/07/13 17:50:43;;;;;;;11.55;2.70;;;19.30;94.00;;;;;;4774689;29;20126;-68
2022/07/13 17:53:09;;;;;;;18.20;3.35;;;19.30;94.20;;;;;;4785225;29;20176;-69
2022/07/13 17:55:35;;;;;;;17.42;3.15;;;19.20;94.50;;;;;;4774239;29;20051;-69
2022/07/13 17:58:01;;;;;;;19.63;2.63;;;19.10;94.40;;;;;;4756318;29;20516;-69
2022/07/13 18:00:26;;;;;;;18.85;2.85;;;19.00;94.30;;;;;;4756883;29;20131;-69
2022/07/13 18:03:37;;;;;;;20.38;3.08;;;18.90;94.60;;;;;;4773275;29;20054;-71
2022/07/13 18:06:55;;;;;;;21.30;3.03;;;18.80;94.90;;;;;;4760924;29;20052;-69
2022/07/13 18:09:23;;;;;;;18.08;3.05;;;18.70;95.50;;;;;;4758972;29;20105;-68
2022/07/13 18:11:49;;;;;;;12.52;2.55;;;18.60;95.00;;;;;;4773795;29;20058;-69
2022/07/13 18:14:49;;;;;;;20.60;3.33;;;18.50;95.10;;;;;;4769136;29;20039;-72